Friday, December 14, 2018, 7:30 PM EST
Back to Local

KHVN, Tweed-new Haven Airport

Location: East Haven, CT, United States Lat: 41.267
Local Time: 7:30 PM EST ( 0:30 GMT) Lon: -72.883
Time Zone: US/Eastern Elev: 13 ft

Show me the last for .
Show Decoded

2018-12-14 18:53 METAR KHVN 142353Z 13005KT 10SM SCT021 OVC070 08/07 A3034 RMK AO2 SLP273 6////
                 T00830067 58010 =
2018-12-14 17:53 METAR KHVN 142253Z 13006KT 10SM BKN070 OVC090 08/06 A3035 RMK AO2 SLP277
                 T00830061 =
2018-12-14 16:53 METAR KHVN 142153Z 13006KT 10SM OVC070 08/06 A3037 RMK AO2 SLP284 T00830061 =
2018-12-14 15:53 METAR KHVN 142053Z 12005KT 10SM BKN022 OVC029 08/04 A3037 RMK AO2 SLP284 6////
                 T00830044 =
2018-12-14 14:53 METAR KHVN 141953Z 12004KT 10SM BKN022 OVC029 09/03 A3039 RMK AO2 SLP290
                 T00890033 =
2018-12-14 14:42 METAR KHVN 141942Z 11004KT 10SM BKN024 OVC031 09/03 A3039 RMK AO2 T00890033 =
2018-12-14 13:53 METAR KHVN 141853Z 36003KT 10SM OVC024 07/02 A3039 RMK AO2 SLP291 T00720022 =
2018-12-14 12:53 METAR KHVN 141753Z 36003KT 10SM OVC025 07/01 A3039 RMK AO2 SLP291 T00670011
                 10067 21033 58043 =
2018-12-14 12:26 METAR KHVN 141726Z 35003KT 10SM BKN026 BKN060 06/01 A3041 RMK AO2 T00610006 =
2018-12-14 11:53 METAR KHVN 141653Z 02005KT 10SM SCT025 BKN060 OVC250 05/00 A3044 RMK AO2 PRESFR
                 SLP307 T00500000 =
2018-12-14 10:53 METAR KHVN 141553Z 02005KT 10SM BKN025 BKN060 04/00 A3048 RMK AO2 SLP321
                 T00440000 =
2018-12-14 09:53 METAR KHVN 141453Z 01005KT 10SM BKN025 OVC065 03/M01 A3052 RMK AO2 SLP334
                 T00281011 50008 =
2018-12-14 08:53 METAR KHVN 141353Z 01005KT 9SM OVC024 01/M02 A3052 RMK AO2 SLP335 T00061022 =
2018-12-14 07:53 METAR KHVN 141253Z 02005KT 8SM BKN022 BKN250 M02/M04 A3051 RMK AO2 SLP330
                 T10171039 =
2018-12-14 06:53 METAR KHVN 141153Z 35004KT 9SM FEW020 M02/M04 A3049 RMK AO2 SLP326 70001
                 T10221039 10006 21028 55001 =
2018-12-14 05:53 METAR KHVN 141053Z 02006KT 10SM CLR M03/M04 A3049 RMK AO2 SLP324 T10281044 =
2018-12-14 04:53 METAR KHVN 140953Z AUTO 01004KT 10SM CLR M02/M04 A3049 RMK AO2 SLP325 T10171039
                 TSNO =
2018-12-14 03:53 METAR KHVN 140853Z AUTO 36004KT 10SM SCT041 M01/M03 A3050 RMK AO2 SLP327
                 T10061033 56009 TSNO =
2018-12-14 02:53 METAR KHVN 140753Z AUTO 02007KT 10SM OVC041 00/M03 A3051 RMK AO2 SLP330
                 T00001028 TSNO =
2018-12-14 01:53 METAR KHVN 140653Z AUTO 02008KT 10SM OVC042 00/M03 A3051 RMK AO2 SLP332
                 T00001028 TSNO =
2018-12-14 00:53 METAR KHVN 140553Z AUTO 01008KT 10SM OVC040 00/M03 A3052 RMK AO2 SLP336
                 T00001028 10006 21006 53001 TSNO =
2018-12-14 00:38 METAR KHVN 140538Z AUTO 01007KT 10SM SCT020 OVC041 00/M03 A3052 RMK AO2
                 T00001028 TSNO =
2018-12-13 23:53 METAR KHVN 140453Z AUTO 36008KT 10SM BKN019 OVC043 00/M03 A3052 RMK AO2 SLP335
                 T00001028 400221039 TSNO =
2018-12-13 22:53 METAR KHVN 140353Z AUTO 36008KT 10SM OVC019 00/M03 A3052 RMK AO2 SLP335
                 T00001028 TSNO =
2018-12-13 21:53 METAR KHVN 140253Z 36006KT 10SM OVC019 00/M03 A3052 RMK AO2 SLP335 T00001033
                 51007 =
2018-12-13 20:53 METAR KHVN 140153Z 02006KT 10SM OVC019 00/M03 A3052 RMK AO2 SLP334 T00001033 =
2018-12-13 19:53 METAR KHVN 140053Z 36006KT 10SM OVC018 00/M03 A3051 RMK AO2 SLP331 T00001028 =

Support USWX by starting your Amazon purchase here.